Time;durP1;ratioP1;P1;durP2;ratioP2;P2;SDS_P1;SDS_P2;PMS_P1;PMS_P2;Temp;Humidity;BMP_temperature;BMP_pressure;BME280_temperature;BME280_humidity;BME280_pressure;Samples;Min_cycle;Max_cycle;Signal;HPM_P1;HPM_P2
2021/12/13 00:02:03;;;;;;;8.10;4.77;;;;;;;0.77;100.00;99362.59;5113124;28;20228;-68
2021/12/13 00:04:37;;;;;;;8.23;5.00;;;;;;;0.79;100.00;99360.88;5113060;28;20197;-67
2021/12/13 00:07:09;;;;;;;9.43;4.80;;;;;;;0.75;100.00;99350.03;5112355;28;20225;-68
2021/12/13 00:09:46;;;;;;;8.50;4.87;;;;;;;0.78;100.00;99359.19;5112677;28;20204;-60
2021/12/13 00:12:19;;;;;;;10.30;5.20;;;;;;;0.82;100.00;99358.25;5112889;28;20462;-61
2021/12/13 00:14:51;;;;;;;10.30;5.10;;;;;;;0.77;100.00;99357.56;5112688;28;20236;-68
2021/12/13 00:17:22;;;;;;;8.47;4.70;;;;;;;0.80;100.00;99359.97;5112638;28;20316;-61
2021/12/13 00:19:51;;;;;;;7.13;4.20;;;;;;;0.84;100.00;99364.06;5112618;27;20201;-68
2021/12/13 00:22:21;;;;;;;9.83;4.87;;;;;;;0.85;100.00;99369.06;5112182;28;20229;-68
2021/12/13 00:24:49;;;;;;;7.73;4.53;;;;;;;0.84;100.00;99364.06;5112295;28;20193;-61
2021/12/13 00:27:19;;;;;;;8.73;4.73;;;;;;;0.78;100.00;99369.25;5112666;28;20651;-61
2021/12/13 00:29:55;;;;;;;8.30;4.67;;;;;;;0.82;100.00;99365.81;5112196;28;20201;-61
2021/12/13 00:32:27;;;;;;;9.57;4.80;;;;;;;0.81;100.00;99359.09;5112322;28;20236;-68
2021/12/13 00:34:58;;;;;;;8.57;4.53;;;;;;;0.81;100.00;99364.13;5112732;28;20201;-61
2021/12/13 00:37:32;;;;;;;9.40;5.07;;;;;;;0.78;100.00;99364.22;5111867;28;20217;-66
2021/12/13 00:40:02;;;;;;;10.87;5.27;;;;;;;0.80;100.00;99367.53;5112090;28;20196;-68
2021/12/13 00:42:36;;;;;;;10.20;5.50;;;;;;;0.83;100.00;99363.22;5111787;28;20221;-67
2021/12/13 00:45:10;;;;;;;7.47;4.50;;;;;;;0.83;100.00;99362.41;5111725;28;20204;-67
2021/12/13 00:47:39;;;;;;;10.23;5.07;;;;;;;0.89;100.00;99373.13;5111743;28;20239;-68
2021/12/13 00:50:13;;;;;;;11.30;5.27;;;;;;;0.85;100.00;99370.75;5112136;28;20576;-60
2021/12/13 00:52:43;;;;;;;11.93;4.97;;;;;;;0.90;100.00;99369.75;5111560;28;20232;-67
2021/12/13 00:55:12;;;;;;;8.37;4.97;;;;;;;0.93;100.00;99373.84;5111666;28;20674;-68
2021/12/13 00:57:42;;;;;;;9.70;5.00;;;;;;;0.97;100.00;99380.47;5111463;28;20229;-68
2021/12/13 01:00:17;;;;;;;8.57;4.47;;;;;;;0.95;100.00;99372.13;5111629;28;20220;-67
2021/12/13 01:02:47;;;;;;;9.17;4.80;;;;;;;0.89;100.00;99362.25;5111718;28;20223;-68
2021/12/13 01:05:16;;;;;;;8.57;4.73;;;;;;;0.81;100.00;99361.63;5111437;28;20209;-61
2021/12/13 01:08:10;;;;;;;10.03;4.73;;;;;;;0.83;100.00;99359.91;5111473;28;20221;-61
2021/12/13 01:11:10;;;;;;;7.23;4.43;;;;;;;0.90;100.00;99358.84;5111622;28;20205;-68
2021/12/13 01:13:55;;;;;;;8.17;4.80;;;;;;;0.81;100.00;99354.06;5111611;28;20207;-61
2021/12/13 01:16:39;;;;;;;8.40;4.70;;;;;;;0.76;100.00;99360.94;5110857;28;20217;-61
2021/12/13 01:19:28;;;;;;;9.67;5.33;;;;;;;0.78;100.00;99354.97;5111392;28;20291;-61
2021/12/13 01:22:24;;;;;;;10.20;5.03;;;;;;;0.81;100.00;99364.13;5111416;28;20225;-60
2021/12/13 01:25:16;;;;;;;8.70;5.10;;;;;;;0.83;100.00;99353.16;5111275;28;20204;-60
2021/12/13 01:27:47;;;;;;;9.00;4.77;;;;;;;0.90;100.00;99348.78;5110923;28;20239;-67
2021/12/13 01:30:17;;;;;;;9.37;5.23;;;;;;;0.80;100.00;99353.25;5111276;28;20189;-62
2021/12/13 01:32:51;;;;;;;9.17;5.27;;;;;;;0.78;100.00;99344.09;5110908;28;20741;-61
2021/12/13 01:35:21;;;;;;;9.13;5.17;;;;;;;0.81;100.00;99341.50;5110944;28;20658;-67
2021/12/13 01:37:52;;;;;;;9.70;5.10;;;;;;;0.77;100.00;99338.25;5110937;28;20218;-61
2021/12/13 01:40:21;;;;;;;9.57;5.37;;;;;;;0.79;100.00;99350.78;5111005;28;20236;-67
2021/12/13 01:42:58;;;;;;;9.23;5.50;;;;;;;0.80;100.00;99349.91;5110784;28;20225;-67
2021/12/13 01:45:29;;;;;;;8.90;5.23;;;;;;;0.74;100.00;99355.13;5111119;28;20199;-67
2021/12/13 01:47:58;;;;;;;9.17;5.20;;;;;;;0.76;100.00;99350.88;5110935;28;20228;-61
2021/12/13 01:50:31;;;;;;;8.67;4.83;;;;;;;0.70;100.00;99356.91;5111031;28;20193;-61
2021/12/13 01:53:01;;;;;;;8.57;4.67;;;;;;;0.65;100.00;99348.66;5110664;28;20332;-67
2021/12/13 01:55:35;;;;;;;8.80;5.00;;;;;;;0.67;100.00;99355.31;5110829;28;20250;-66
2021/12/13 01:58:21;;;;;;;10.47;4.93;;;;;;;0.63;100.00;99356.22;5110764;28;20243;-61
2021/12/13 02:01:09;;;;;;;7.73;4.97;;;;;;;0.67;100.00;99362.84;5110684;28;20212;-61
2021/12/13 02:03:54;;;;;;;9.37;4.60;;;;;;;0.70;100.00;99351.88;5110770;28;20193;-61
2021/12/13 02:06:32;;;;;;;9.00;5.07;;;;;;;0.63;100.00;99353.72;5111020;28;20248;-66
2021/12/13 02:09:03;;;;;;;9.37;4.80;;;;;;;0.62;100.00;99354.59;5110947;28;20196;-67
2021/12/13 02:11:33;;;;;;;6.53;4.40;;;;;;;0.57;100.00;99356.41;5110418;28;20229;-62
2021/12/13 02:14:09;;;;;;;7.37;4.20;;;;;;;0.67;100.00;99352.78;5110910;28;20200;-67
2021/12/13 02:16:59;;;;;;;8.17;4.57;;;;;;;0.66;100.00;99356.16;5111029;28;20574;-62
2021/12/13 02:19:34;;;;;;;9.83;5.00;;;;;;;0.67;100.00;99357.81;5110881;28;20213;-68
2021/12/13 02:22:21;;;;;;;8.13;4.33;;;;;;;0.65;100.00;99357.03;5111117;28;20231;-68
2021/12/13 02:24:49;;;;;;;7.87;4.47;;;;;;;0.71;100.00;99361.06;5110440;28;20208;-67
2021/12/13 02:27:22;;;;;;;8.70;4.93;;;;;;;0.67;100.00;99357.81;5110270;28;20221;-67
2021/12/13 02:29:50;;;;;;;7.87;4.40;;;;;;;0.59;100.00;99364.75;5110478;28;20204;-61
2021/12/13 02:32:18;;;;;;;7.40;4.40;;;;;;;0.54;100.00;99351.44;5110158;28;20639;-61
2021/12/13 02:34:45;;;;;;;7.43;4.20;;;;;;;0.49;100.00;99358.28;5110877;28;20232;-67
2021/12/13 02:37:13;;;;;;;7.20;4.00;;;;;;;0.58;100.00;99368.13;5110337;28;20224;-61
2021/12/13 02:39:45;;;;;;;6.97;4.33;;;;;;;0.53;100.00;99366.59;5110313;28;20205;-67
2021/12/13 02:42:14;;;;;;;6.57;3.83;;;;;;;0.56;100.00;99374.88;5113853;28;20249;-60
2021/12/13 02:44:43;;;;;;;9.67;4.23;;;;;;;0.59;100.00;99374.81;5114371;28;20201;-68
2021/12/13 02:47:22;;;;;;;7.80;3.77;;;;;;;0.68;100.00;99377.06;5114205;28;20217;-68
2021/12/13 02:49:49;;;;;;;7.50;4.47;;;;;;;0.64;100.00;99383.06;5114259;28;20208;-67
2021/12/13 02:52:20;;;;;;;5.90;4.00;;;;;;;0.61;100.00;99383.16;5113807;28;21022;-67
2021/12/13 02:54:53;;;;;;;9.73;4.63;;;;;;;0.53;100.00;99382.53;5114080;28;20205;-68
2021/12/13 02:57:23;;;;;;;6.03;3.80;;;;;;;0.52;100.00;99382.53;5114024;28;20467;-65
2021/12/13 02:59:54;;;;;;;8.33;4.60;;;;;;;0.51;100.00;99380.91;5114254;28;20588;-61
2021/12/13 03:02:24;;;;;;;7.53;4.17;;;;;;;0.51;100.00;99384.25;5114087;28;20213;-67
2021/12/13 03:04:52;;;;;;;7.57;3.83;;;;;;;0.45;100.00;99385.22;5114068;28;20209;-61
2021/12/13 03:07:26;;;;;;;7.47;3.93;;;;;;;0.45;100.00;99381.88;5113687;27;20732;-67
2021/12/13 03:09:55;;;;;;;6.80;4.27;;;;;;;0.50;100.00;99382.59;5114519;28;20571;-61
2021/12/13 03:12:25;;;;;;;6.93;4.20;;;;;;;0.39;100.00;99379.53;5113989;28;20498;-60
2021/12/13 03:14:56;;;;;;;7.50;4.20;;;;;;;0.48;100.00;99381.81;5113667;28;20193;-61
2021/12/13 03:17:28;;;;;;;5.93;4.20;;;;;;;0.52;100.00;99378.34;5113687;28;20213;-68
2021/12/13 03:20:11;;;;;;;9.07;4.60;;;;;;;0.51;100.00;99386.75;5114084;28;20679;-61
2021/12/13 03:23:11;;;;;;;6.67;3.90;;;;;;;0.55;100.00;99388.31;5113481;28;20494;-61
2021/12/13 03:25:54;;;;;;;6.70;3.97;;;;;;;0.56;100.00;99389.97;5109868;28;20208;-61
2021/12/13 03:28:39;;;;;;;9.53;4.60;;;;;;;0.57;100.00;99391.63;5113965;28;20600;-68
2021/12/13 03:31:10;;;;;;;7.87;4.30;;;;;;;0.52;100.00;99387.56;5113695;28;20301;-67
2021/12/13 03:33:49;;;;;;;8.50;4.43;;;;;;;0.54;100.00;99381.63;5113233;28;20232;-68
2021/12/13 03:36:20;;;;;;;6.33;4.20;;;;;;;0.53;100.00;99382.53;5113519;28;21005;-67
2021/12/13 03:38:52;;;;;;;7.40;4.20;;;;;;;0.52;100.00;99383.38;5113194;28;20932;-60
2021/12/13 03:41:23;;;;;;;6.43;3.73;;;;;;;0.53;100.00;99377.50;5113479;28;20221;-67
2021/12/13 03:43:56;;;;;;;5.40;3.30;;;;;;;0.52;100.00;99382.53;5113236;28;20728;-60
2021/12/13 03:46:28;;;;;;;6.47;3.63;;;;;;;0.50;100.00;99385.13;5113341;28;20224;-67
2021/12/13 03:48:57;;;;;;;6.30;3.70;;;;;;;0.51;100.00;99381.72;5113545;28;20197;-61
2021/12/13 03:51:29;;;;;;;6.90;3.60;;;;;;;0.52;100.00;99390.91;5112836;28;20247;-67
2021/12/13 03:53:58;;;;;;;6.83;4.10;;;;;;;0.53;100.00;99389.25;5112889;28;20228;-67
2021/12/13 03:56:32;;;;;;;7.67;4.40;;;;;;;0.63;100.00;99391.47;5113128;28;20214;-60
2021/12/13 03:59:02;;;;;;;6.43;4.13;;;;;;;0.57;100.00;99389.09;5112837;28;20697;-60
2021/12/13 04:01:36;;;;;;;5.33;3.20;;;;;;;0.54;100.00;99391.72;5113164;28;20225;-61
2021/12/13 04:04:07;;;;;;;8.23;4.30;;;;;;;0.55;100.00;99400.91;5113055;28;20190;-61
2021/12/13 04:06:43;;;;;;;6.80;3.87;;;;;;;0.54;100.00;99396.75;5112580;28;20244;-67
2021/12/13 04:09:10;;;;;;;6.37;3.50;;;;;;;0.52;100.00;99398.47;5112589;28;20201;-67
2021/12/13 04:11:42;;;;;;;6.87;4.07;;;;;;;0.53;100.00;99396.78;5112444;28;20232;-61
2021/12/13 04:14:17;;;;;;;5.83;3.63;;;;;;;0.52;100.00;99403.50;5112415;28;20262;-68
2021/12/13 04:16:49;;;;;;;6.73;3.80;;;;;;;0.53;100.00;99397.63;5112870;28;20220;-61
2021/12/13 04:19:19;;;;;;;7.50;4.07;;;;;;;0.59;100.00;99399.97;5112802;28;20734;-68
2021/12/13 04:21:51;;;;;;;8.53;4.33;;;;;;;0.58;100.00;99397.47;5112514;28;20221;-61
2021/12/13 04:24:21;;;;;;;8.63;4.40;;;;;;;0.60;100.00;99405.81;5112383;28;20666;-61
2021/12/13 04:26:52;;;;;;;9.53;4.77;;;;;;;0.55;100.00;99408.44;5112603;28;20217;-67
2021/12/13 04:29:22;;;;;;;7.50;4.10;;;;;;;0.63;100.00;99411.59;5112090;28;20193;-67
2021/12/13 04:31:51;;;;;;;6.43;3.70;;;;;;;0.63;100.00;99409.06;5112525;28;20617;-67
2021/12/13 04:34:23;;;;;;;7.00;4.37;;;;;;;0.66;100.00;99411.50;5111981;28;20244;-67
2021/12/13 04:36:52;;;;;;;7.20;3.80;;;;;;;0.65;100.00;99414.06;5112212;27;20714;-61
2021/12/13 04:39:27;;;;;;;6.07;3.57;;;;;;;0.56;100.00;99415.13;5112154;28;20633;-67
2021/12/13 04:41:59;;;;;;;7.50;3.97;;;;;;;0.67;100.00;99415.69;5112064;28;20217;-61
2021/12/13 04:44:36;;;;;;;6.10;3.83;;;;;;;0.63;100.00;99416.63;5112145;28;20270;-68
2021/12/13 04:47:08;;;;;;;6.40;3.70;;;;;;;0.54;100.00;99413.53;5111982;28;20216;-67
2021/12/13 04:49:37;;;;;;;8.23;4.27;;;;;;;0.54;100.00;99416.88;5111893;28;20200;-67
2021/12/13 04:52:08;;;;;;;5.83;4.03;;;;;;;0.54;100.00;99411.84;5111889;28;20232;-61
2021/12/13 04:54:41;;;;;;;6.30;3.67;;;;;;;0.54;100.00;99416.88;5111851;28;20205;-60
2021/12/13 04:57:10;;;;;;;6.10;3.47;;;;;;;0.48;100.00;99417.03;5111980;28;20478;-61
2021/12/13 04:59:37;;;;;;;6.63;3.87;;;;;;;0.45;100.00;99412.91;5111639;28;20203;-60
2021/12/13 05:02:07;;;;;;;6.10;3.77;;;;;;;0.54;100.00;99419.38;5111912;28;20914;-67
2021/12/13 05:04:35;;;;;;;6.33;3.60;;;;;;;0.54;100.00;99411.84;5111072;28;20698;-67
2021/12/13 05:07:05;;;;;;;6.20;3.80;;;;;;;0.50;100.00;99410.28;5111610;28;20474;-67
2021/12/13 05:09:34;;;;;;;6.33;3.80;;;;;;;0.50;100.00;99415.31;5111438;28;20194;-61
2021/12/13 05:12:09;;;;;;;5.67;3.57;;;;;;;0.50;100.00;99412.78;5111745;28;20248;-62
2021/12/13 05:14:40;;;;;;;5.27;3.40;;;;;;;0.49;100.00;99416.16;5111299;28;20304;-67
2021/12/13 05:17:12;;;;;;;5.60;3.27;;;;;;;0.47;100.00;99425.44;5111763;28;20229;-61
2021/12/13 05:19:41;;;;;;;5.73;3.43;;;;;;;0.51;100.00;99421.97;5111545;28;20674;-61
2021/12/13 05:22:10;;;;;;;8.73;4.00;;;;;;;0.51;100.00;99426.19;5111133;28;20698;-67
2021/12/13 05:24:45;;;;;;;6.20;3.87;;;;;;;0.47;100.00;99435.50;5111224;28;20201;-67
2021/12/13 05:27:15;;;;;;;6.07;3.83;;;;;;;0.47;100.00;99435.50;5111121;28;20227;-67
2021/12/13 05:29:46;;;;;;;6.37;3.73;;;;;;;0.49;100.00;99443.81;5111460;28;20197;-68
2021/12/13 05:32:17;;;;;;;5.93;4.07;;;;;;;0.41;100.00;99444.03;5110999;28;20217;-67
2021/12/13 05:34:48;;;;;;;7.43;3.93;;;;;;;0.45;100.00;99449.81;5111369;28;20626;-60
2021/12/13 05:37:15;;;;;;;5.23;3.57;;;;;;;0.47;100.00;99460.66;5111228;28;20588;-60
2021/12/13 05:39:59;;;;;;;5.73;3.33;;;;;;;0.54;100.00;99451.25;5110934;28;20701;-67
2021/12/13 05:42:37;;;;;;;5.37;3.33;;;;;;;0.47;100.00;99463.19;5111051;28;20224;-67
2021/12/13 05:45:09;;;;;;;7.07;4.00;;;;;;;0.48;100.00;99464.00;5110867;28;20208;-61
2021/12/13 05:47:37;;;;;;;5.67;3.50;;;;;;;0.48;100.00;99462.31;5110895;28;20221;-61
2021/12/13 05:50:07;;;;;;;6.27;3.73;;;;;;;0.54;100.00;99467.19;5110636;28;20689;-61
2021/12/13 05:52:37;;;;;;;6.47;3.90;;;;;;;0.47;100.00;99470.72;5110861;28;20232;-61
2021/12/13 05:55:10;;;;;;;5.40;3.50;;;;;;;0.50;100.00;99465.63;5111473;28;20601;-61
2021/12/13 05:57:41;;;;;;;6.67;3.73;;;;;;;0.52;100.00;99468.06;5110916;28;20221;-68
2021/12/13 06:00:19;;;;;;;6.47;3.33;;;;;;;0.53;100.00;99470.56;5110974;28;20193;-68
2021/12/13 06:03:01;;;;;;;6.47;3.80;;;;;;;0.63;100.00;99471.97;5110644;28;20213;-61
2021/12/13 06:05:31;;;;;;;6.53;3.90;;;;;;;0.57;100.00;99472.13;5110777;28;20443;-63
2021/12/13 06:08:01;;;;;;;7.50;3.40;;;;;;;0.56;100.00;99475.53;5110957;28;20220;-67
2021/12/13 06:10:40;;;;;;;7.43;4.37;;;;;;;0.49;100.00;99478.22;5110625;28;20209;-67
2021/12/13 06:13:14;;;;;;;5.37;3.40;;;;;;;0.59;100.00;99480.47;5110572;28;20232;-67
2021/12/13 06:15:44;;;;;;;4.73;3.37;;;;;;;0.56;100.00;99475.53;5113647;28;20577;-62
2021/12/13 06:18:20;;;;;;;5.60;3.60;;;;;;;0.62;100.00;99477.88;5114906;28;20739;-60
2021/12/13 06:20:56;;;;;;;5.40;3.37;;;;;;;0.59;100.00;99474.63;5114793;28;20211;-68
2021/12/13 06:23:27;;;;;;;5.37;3.43;;;;;;;0.65;100.00;99479.50;5114797;28;20228;-60
2021/12/13 06:26:00;;;;;;;6.13;3.63;;;;;;;0.59;100.00;99485.50;5114689;28;20687;-67
2021/12/13 06:28:29;;;;;;;5.27;3.60;;;;;;;0.57;100.00;99486.41;5114789;28;20197;-68
2021/12/13 06:31:01;;;;;;;6.03;3.50;;;;;;;0.58;100.00;99491.41;5114700;28;20568;-61
2021/12/13 06:33:28;;;;;;;5.83;3.47;;;;;;;0.64;100.00;99503.84;5114873;28;20611;-61
2021/12/13 06:35:58;;;;;;;5.23;3.40;;;;;;;0.70;100.00;99507.03;5114552;27;20205;-62
2021/12/13 06:38:36;;;;;;;6.27;3.20;;;;;;;0.69;100.00;99506.22;5114789;28;20201;-61
2021/12/13 06:41:09;;;;;;;7.30;3.43;;;;;;;0.72;100.00;99505.31;5114745;28;20201;-61
2021/12/13 06:43:40;;;;;;;5.83;3.40;;;;;;;0.74;100.00;99503.59;5114344;28;20201;-67
2021/12/13 06:46:12;;;;;;;7.43;3.70;;;;;;;0.80;100.00;99508.47;5114347;28;20224;-61
2021/12/13 06:48:43;;;;;;;12.07;6.73;;;;;;;0.86;100.00;99518.38;5114136;28;20205;-68
2021/12/13 06:51:12;;;;;;;10.57;6.13;;;;;;;0.82;100.00;99517.63;5114286;28;20645;-61
2021/12/13 06:53:40;;;;;;;7.37;3.90;;;;;;;0.78;100.00;99520.25;5114015;28;20730;-61
2021/12/13 06:56:23;;;;;;;6.17;4.10;;;;;;;0.90;100.00;99522.47;5114080;28;20467;-61
2021/12/13 06:58:53;;;;;;;6.00;3.70;;;;;;;0.90;100.00;99535.91;5114209;28;20200;-67
2021/12/13 07:01:22;;;;;;;8.90;4.20;;;;;;;0.96;100.00;99539.94;5114047;27;20240;-60
2021/12/13 07:03:55;;;;;;;11.13;4.70;;;;;;;0.97;100.00;99549.16;5114109;28;20205;-67
2021/12/13 07:06:22;;;;;;;7.37;4.17;;;;;;;1.00;100.00;99544.03;5114031;28;20224;-60
2021/12/13 07:09:04;;;;;;;7.60;4.37;;;;;;;1.02;100.00;99551.53;5113833;28;20214;-61
2021/12/13 07:11:42;;;;;;;10.23;5.40;;;;;;;1.13;100.00;99557.97;5113945;28;20694;-68
2021/12/13 07:14:13;;;;;;;11.20;5.10;;;;;;;1.10;100.00;99559.72;5113938;28;20225;-67
2021/12/13 07:16:47;;;;;;;8.33;5.00;;;;;;;1.14;100.00;99553.75;5113730;28;20221;-61
2021/12/13 07:19:22;;;;;;;8.33;5.30;;;;;;;1.03;100.00;99546.47;5113919;28;20198;-60
2021/12/13 07:21:54;;;;;;;10.70;6.20;;;;;;;1.05;100.00;99542.22;5113508;28;20676;-67
2021/12/13 07:24:29;;;;;;;10.60;6.23;;;;;;;1.01;100.00;99542.34;5113706;28;20629;-60
2021/12/13 07:27:04;;;;;;;9.47;5.93;;;;;;;1.15;100.00;99549.53;5112830;28;20726;-68
2021/12/13 07:29:38;;;;;;;10.83;6.00;;;;;;;1.21;100.00;99556.91;5113404;28;20253;-60
2021/12/13 07:32:10;;;;;;;9.10;5.80;;;;;;;1.31;100.00;99565.91;5113780;28;20737;-68
2021/12/13 07:34:49;;;;;;;9.23;5.20;;;;;;;1.33;100.00;99561.63;5113307;28;20232;-60
2021/12/13 07:37:17;;;;;;;8.37;5.33;;;;;;;1.34;100.00;99553.22;5113700;28;20224;-67
2021/12/13 07:39:44;;;;;;;8.53;5.23;;;;;;;1.30;100.00;99539.03;5113125;28;20209;-60
2021/12/13 07:42:14;;;;;;;8.23;4.70;;;;;;;1.35;100.00;99542.28;5113074;28;20253;-61
2021/12/13 07:44:42;;;;;;;8.77;5.00;;;;;;;1.34;100.00;99545.66;5113097;28;20197;-60
2021/12/13 07:47:14;;;;;;;7.43;4.67;;;;;;;1.40;100.00;99554.72;5113433;28;20221;-60
2021/12/13 07:49:45;;;;;;;8.83;4.90;;;;;;;1.45;100.00;99561.28;5113256;27;20544;-60
2021/12/13 07:52:24;;;;;;;8.13;4.73;;;;;;;1.50;100.00;99564.50;5113402;28;20285;-61
2021/12/13 07:54:52;;;;;;;8.23;4.93;;;;;;;1.54;100.00;99563.59;5112931;28;20623;-68
2021/12/13 07:57:23;;;;;;;8.13;4.90;;;;;;;1.53;100.00;99558.56;5113348;28;20706;-68
2021/12/13 07:59:52;;;;;;;9.53;5.13;;;;;;;1.51;100.00;99551.06;5112927;28;20662;-60
2021/12/13 08:02:25;;;;;;;10.23;5.53;;;;;;;1.56;100.00;99551.75;5113166;28;20587;-68
2021/12/13 08:04:56;;;;;;;7.83;4.93;;;;;;;1.60;100.00;99555.03;5113007;28;20272;-67
2021/12/13 08:07:27;;;;;;;9.07;5.07;;;;;;;1.62;100.00;99563.34;5112875;28;20221;-60
2021/12/13 08:09:58;;;;;;;23.97;10.17;;;;;;;1.59;100.00;99564.25;5112732;27;20205;-60
2021/12/13 08:12:29;;;;;;;18.77;5.70;;;;;;;1.65;100.00;99564.97;5112628;28;20710;-68
2021/12/13 08:15:12;;;;;;;8.73;4.87;;;;;;;1.75;100.00;99573.94;5112768;28;20650;-60
2021/12/13 08:17:44;;;;;;;7.13;4.40;;;;;;;1.69;100.00;99571.59;5112590;28;20225;-61
2021/12/13 08:20:14;;;;;;;7.93;4.40;;;;;;;1.70;100.00;99568.19;5112655;28;20190;-60
2021/12/13 08:22:44;;;;;;;9.10;5.27;;;;;;;1.78;100.00;99571.31;5112209;28;20256;-60
2021/12/13 08:25:16;;;;;;;8.93;5.27;;;;;;;1.81;100.00;99571.22;5112409;28;20201;-67
2021/12/13 08:27:50;;;;;;;8.53;4.70;;;;;;;1.93;100.00;99565.00;5112231;28;20225;-67
2021/12/13 08:30:20;;;;;;;7.30;3.90;;;;;;;1.92;100.00;99579.31;5112622;28;20205;-60
2021/12/13 08:33:06;;;;;;;6.93;3.33;;;;;;;1.96;100.00;99570.78;5112425;28;20224;-66
2021/12/13 08:35:53;;;;;;;6.50;4.00;;;;;;;2.02;100.00;99579.88;5112259;28;20654;-67
2021/12/13 08:38:37;;;;;;;5.73;3.40;;;;;;;2.08;100.00;99579.69;5112105;28;20189;-59
2021/12/13 08:41:17;;;;;;;7.20;3.73;;;;;;;2.11;100.00;99598.94;5112246;28;20205;-67
2021/12/13 08:43:48;;;;;;;6.90;4.03;;;;;;;2.11;100.00;99586.34;5111917;28;20677;-60
2021/12/13 08:46:28;;;;;;;6.60;3.50;;;;;;;2.06;100.00;99583.13;5111897;28;20995;-68
2021/12/13 08:48:56;;;;;;;5.10;3.40;;;;;;;2.12;100.00;99575.34;5112020;28;20204;-67
2021/12/13 08:51:28;;;;;;;5.80;3.20;;;;;;;2.16;100.00;99579.47;5112086;28;20232;-67
2021/12/13 08:54:04;;;;;;;4.83;3.20;;;;;;;2.12;99.86;99580.41;5111753;28;20237;-67
2021/12/13 08:56:33;;;;;;;5.97;3.53;;;;;;;2.19;99.60;99591.97;5111893;28;20221;-60
2021/12/13 08:59:05;;;;;;;6.93;3.93;;;;;;;2.31;99.81;99591.59;5111738;28;20203;-60
2021/12/13 09:01:41;;;;;;;5.93;3.67;;;;;;;2.27;99.76;99597.63;5111555;28;20236;-60
2021/12/13 09:04:10;;;;;;;5.43;3.43;;;;;;;2.38;100.00;99588.00;5111747;28;20197;-60
2021/12/13 09:06:38;;;;;;;8.23;4.10;;;;;;;2.40;99.92;99596.38;5111744;28;20244;-60
2021/12/13 09:09:11;;;;;;;6.07;3.70;;;;;;;2.44;98.66;99587.84;5111778;28;20186;-60
2021/12/13 09:11:41;;;;;;;6.57;3.70;;;;;;;2.46;98.78;99590.31;5111433;27;20249;-60
2021/12/13 09:14:18;;;;;;;10.23;4.80;;;;;;;2.47;98.55;99586.91;5111751;28;20270;-60
2021/12/13 09:16:56;;;;;;;10.17;6.03;;;;;;;2.56;98.27;99583.25;5111624;28;20216;-67
2021/12/13 09:19:29;;;;;;;10.47;5.40;;;;;;;2.65;98.73;99588.03;5111431;28;20279;-60
2021/12/13 09:22:01;;;;;;;7.13;4.03;;;;;;;2.62;98.38;99581.41;5111361;28;20228;-60
2021/12/13 09:24:33;;;;;;;6.03;3.80;;;;;;;2.58;98.69;99579.81;5111332;28;20902;-60
2021/12/13 09:27:25;;;;;;;6.13;3.67;;;;;;;2.52;98.11;99584.25;5111570;28;20228;-68
2021/12/13 09:30:03;;;;;;;5.53;3.50;;;;;;;2.58;98.09;99579.81;5111528;28;20208;-67
2021/12/13 09:32:37;;;;;;;8.37;4.47;;;;;;;2.62;97.36;99580.56;5111093;28;20229;-60
2021/12/13 09:35:33;;;;;;;6.30;3.70;;;;;;;2.78;97.71;99568.28;5110963;28;20229;-60
2021/12/13 09:38:18;;;;;;;8.03;4.47;;;;;;;2.76;98.26;99568.31;5111320;28;20217;-60
2021/12/13 09:40:49;;;;;;;11.50;5.40;;;;;;;2.87;98.15;99568.78;5110922;28;20201;-69
2021/12/13 09:43:18;;;;;;;6.73;4.03;;;;;;;2.89;97.92;99564.50;5111161;28;20239;-60
2021/12/13 09:45:52;;;;;;;5.57;3.80;;;;;;;2.91;96.69;99562.78;5110880;28;20227;-61
2021/12/13 09:48:24;;;;;;;8.30;4.60;;;;;;;3.03;98.16;99565.78;5111053;28;20200;-61
2021/12/13 09:51:00;;;;;;;8.37;4.70;;;;;;;3.02;97.28;99561.56;5110558;28;20667;-67
2021/12/13 09:53:32;;;;;;;12.13;5.27;;;;;;;2.98;96.63;99552.47;5110850;28;20197;-60
2021/12/13 09:56:02;;;;;;;8.13;4.83;;;;;;;3.09;97.04;99565.56;5110680;28;20236;-67
2021/12/13 09:58:38;;;;;;;8.30;4.50;;;;;;;3.12;97.08;99561.22;5110742;28;20197;-67
2021/12/13 10:01:09;;;;;;;8.47;4.80;;;;;;;3.16;96.20;99566.97;5111023;28;20247;-60
2021/12/13 10:03:48;;;;;;;7.47;4.13;;;;;;;3.17;97.63;99556.00;5110734;28;20239;-67
2021/12/13 10:06:21;;;;;;;7.03;4.60;;;;;;;3.22;97.23;99564.25;5110791;28;20648;-60
2021/12/13 10:08:52;;;;;;;8.90;4.53;;;;;;;3.26;97.20;99565.81;5110737;28;20190;-68
2021/12/13 10:11:21;;;;;;;7.67;4.77;;;;;;;3.38;96.73;99557.78;5111016;28;20229;-61
2021/12/13 10:13:49;;;;;;;7.43;4.23;;;;;;;3.46;96.40;99564.25;5111118;28;21141;-68
2021/12/13 10:16:20;;;;;;;7.67;4.53;;;;;;;3.61;95.81;99556.16;5110733;28;20228;-62
2021/12/13 10:18:50;;;;;;;6.67;4.47;;;;;;;3.48;95.04;99562.50;5110696;28;20197;-60
2021/12/13 10:21:24;;;;;;;8.07;4.97;;;;;;;3.43;94.87;99556.78;5110784;28;20236;-68
2021/12/13 10:23:56;;;;;;;8.10;4.43;;;;;;;3.38;95.40;99547.69;5110806;28;20201;-61
2021/12/13 10:26:25;;;;;;;7.73;4.90;;;;;;;3.24;96.15;99539.75;5110524;28;20303;-61
2021/12/13 10:28:55;;;;;;;11.00;4.60;;;;;;;3.42;96.61;99552.63;5110650;28;20674;-61
2021/12/13 10:31:27;;;;;;;6.00;3.80;;;;;;;3.49;97.03;99548.97;5110806;28;20217;-61
2021/12/13 10:33:56;;;;;;;9.93;4.37;;;;;;;3.59;97.35;99545.25;5110552;28;20189;-68
2021/12/13 10:36:28;;;;;;;7.60;4.77;;;;;;;3.62;96.04;99550.22;5110794;28;20251;-67
2021/12/13 10:38:59;;;;;;;7.17;4.27;;;;;;;3.66;95.83;99550.91;5110855;28;20244;-60
2021/12/13 10:41:31;;;;;;;8.80;4.57;;;;;;;3.45;95.79;99552.50;5110375;28;20706;-67
2021/12/13 10:44:02;;;;;;;8.97;4.80;;;;;;;3.53;95.88;99553.06;5110534;28;20190;-68
2021/12/13 10:46:32;;;;;;;6.80;4.30;;;;;;;3.62;95.97;99550.22;5110270;28;20248;-68
2021/12/13 10:49:01;;;;;;;6.70;4.00;;;;;;;3.73;95.45;99554.88;5110433;28;20193;-60
2021/12/13 10:51:32;;;;;;;6.83;4.30;;;;;;;3.69;95.04;99550.81;5110529;28;20233;-61
2021/12/13 10:54:03;;;;;;;12.63;5.47;;;;;;;3.60;95.75;99542.66;5110296;28;20650;-60
2021/12/13 10:56:35;;;;;;;7.57;4.80;;;;;;;3.68;97.11;99534.81;5110580;28;20213;-60
2021/12/13 10:59:13;;;;;;;8.23;4.93;;;;;;;3.64;96.68;99538.34;5110570;28;20185;-60
2021/12/13 11:01:43;;;;;;;7.70;4.60;;;;;;;3.75;94.53;99538.78;5111432;28;20223;-60
2021/12/13 11:04:17;;;;;;;7.50;4.30;;;;;;;3.75;94.67;99546.38;5113989;28;20196;-67
2021/12/13 11:06:48;;;;;;;5.80;3.60;;;;;;;3.74;95.12;99539.63;5114175;28;20693;-68
2021/12/13 11:09:19;;;;;;;7.33;4.23;;;;;;;3.76;94.82;99542.94;5113883;28;20208;-68
2021/12/13 11:11:52;;;;;;;7.40;4.60;;;;;;;3.75;94.72;99537.94;5113945;28;20220;-60
2021/12/13 11:14:22;;;;;;;6.07;4.37;;;;;;;3.72;95.09;99543.91;5113958;28;20217;-61
2021/12/13 11:16:53;;;;;;;8.27;4.30;;;;;;;3.84;95.93;99546.00;5113424;28;20761;-69
2021/12/13 11:19:23;;;;;;;7.60;4.33;;;;;;;3.88;95.71;99540.84;5113745;28;20667;-68
2021/12/13 11:21:54;;;;;;;8.53;4.73;;;;;;;3.94;95.75;99541.44;5113869;28;20631;-68
2021/12/13 11:24:25;;;;;;;8.47;4.97;;;;;;;3.99;95.58;99533.69;5113689;28;20213;-61
2021/12/13 11:26:56;;;;;;;8.03;4.33;;;;;;;3.81;94.74;99530.97;5114011;28;20212;-61
2021/12/13 11:29:25;;;;;;;8.57;4.70;;;;;;;3.99;94.52;99538.75;5113698;28;20201;-68
2021/12/13 11:32:30;;;;;;;7.33;4.50;;;;;;;3.88;94.46;99538.31;5113637;28;20220;-61
2021/12/13 11:35:31;;;;;;;11.27;4.37;;;;;;;3.84;95.30;99535.91;5062265;28;20240;-60
2021/12/13 11:38:26;;;;;;;7.53;4.20;;;;;;;3.96;94.42;99534.63;5113325;28;20217;-67
2021/12/13 11:41:12;;;;;;;7.80;4.37;;;;;;;3.96;94.63;99541.38;5113258;28;20223;-61
2021/12/13 11:44:00;;;;;;;8.57;4.77;;;;;;;3.98;95.08;99537.06;5113195;28;20716;-68
2021/12/13 11:46:50;;;;;;;6.77;4.27;;;;;;;3.93;94.74;99534.72;5113469;28;20220;-68
2021/12/13 11:49:35;;;;;;;6.53;4.57;;;;;;;3.86;94.74;99536.66;5113199;28;20490;-68
2021/12/13 11:52:18;;;;;;;9.30;4.83;;;;;;;3.77;95.99;99534.47;5113242;28;20239;-62
2021/12/13 11:55:09;;;;;;;7.90;4.60;;;;;;;3.71;95.52;99532.16;5112835;28;20232;-68
2021/12/13 11:58:19;;;;;;;7.07;4.70;;;;;;;3.63;96.01;99536.66;5113060;28;20222;-61
2021/12/13 12:01:09;;;;;;;8.70;5.13;;;;;;;3.79;96.30;99535.25;5112925;28;20220;-61
2021/12/13 12:04:15;;;;;;;10.30;5.37;;;;;;;3.81;95.43;99536.00;5078765;27;20209;-60
2021/12/13 12:07:27;;;;;;;10.23;5.60;;;;;;;3.87;95.16;99532.44;5112279;28;20224;-60